Time;durP1;ratioP1;P1;durP2;ratioP2;P2;SDS_P1;SDS_P2;PMS_P1;PMS_P2;Temp;Humidity;BMP_temperature;BMP_pressure;BME280_temperature;BME280_humidity;BME280_pressure;Samples;Min_cycle;Max_cycle;Signal;HPM_P1;HPM_P2
2022/08/31 00:03:53;;;;;;;491.35;445.55;;;;;;;25.05;59.48;99411.81;346232;28;1402;-80
2022/08/31 00:04:04;;;;;;;498.77;452.52;;;;;;;25.09;59.37;99412.31;344886;28;987;-80
2022/08/31 00:04:15;;;;;;;500.42;454.05;;;;;;;25.08;59.49;99407.97;344812;28;987;-80
2022/08/31 00:04:26;;;;;;;498.27;451.90;;;;;;;25.09;59.28;99423.03;344806;28;894;-80
2022/08/31 00:04:36;;;;;;;499.17;452.85;;;;;;;25.09;59.16;99410.47;346818;28;1271;-80
2022/08/31 00:04:47;;;;;;;490.10;443.93;;;;;;;25.08;59.26;99407.97;346142;28;1363;-80
2022/08/31 00:04:57;;;;;;;486.75;440.60;;;;;;;25.08;59.26;99406.13;348083;28;1380;-80
2022/08/31 00:05:08;;;;;;;490.00;443.83;;;;;;;25.07;59.31;99412.47;344598;28;1522;-80
2022/08/31 00:05:19;;;;;;;498.25;451.75;;;;;;;25.07;59.09;99403.59;342118;28;1443;-80
2022/08/31 00:05:29;;;;;;;492.05;445.67;;;;;;;25.06;59.12;99402.78;347473;28;1208;-80
2022/08/31 00:05:40;;;;;;;483.70;437.50;;;;;;;25.06;59.32;99407.28;344617;28;1374;-80
2022/08/31 00:05:55;;;;;;;477.60;431.52;;;;;;;25.08;59.36;99416.00;344764;28;1375;-80
2022/08/31 00:06:06;;;;;;;473.23;427.45;;;;;;;25.08;59.46;99410.66;347581;28;1272;-80
2022/08/31 00:06:16;;;;;;;475.75;429.92;;;;;;;25.07;58.93;99415.16;343768;28;1370;-80
2022/08/31 00:06:26;;;;;;;484.23;438.20;;;;;;;25.07;59.29;99403.59;341300;28;922;-80
2022/08/31 00:06:37;;;;;;;490.00;443.77;;;;;;;25.07;59.64;99408.97;343996;28;1389;-80
2022/08/31 00:06:48;;;;;;;495.67;449.20;;;;;;;25.07;59.09;99408.97;345218;28;916;-80
2022/08/31 00:06:59;;;;;;;498.60;452.10;;;;;;;25.05;59.61;99413.63;347109;28;1320;-80
2022/08/31 00:07:09;;;;;;;501.47;454.87;;;;;;;25.08;59.14;99405.28;342228;28;3733;-80
2022/08/31 00:07:20;;;;;;;502.70;456.20;;;;;;;25.09;59.35;99406.97;341070;28;2985;-80
2022/08/31 00:07:33;;;;;;;502.85;456.33;;;;;;;25.07;59.00;99407.13;339351;29;1842;-80
2022/08/31 00:07:43;;;;;;;500.02;453.65;;;;;;;25.07;59.27;99406.28;340165;29;3158;-79
2022/08/31 00:07:54;;;;;;;504.90;458.55;;;;;;;25.07;59.33;99406.28;337423;29;1359;-79
2022/08/31 00:08:04;;;;;;;502.20;456.00;;;;;;;25.05;59.34;99411.81;339153;29;1475;-79
2022/08/31 00:08:15;;;;;;;490.15;444.02;;;;;;;25.06;59.21;99409.97;340678;29;1461;-79
2022/08/31 00:08:26;;;;;;;480.40;434.27;;;;;;;25.04;59.40;99404.75;336708;29;1231;-79
2022/08/31 00:08:36;;;;;;;481.20;435.10;;;;;;;25.03;59.41;99412.97;337164;29;1695;-79
2022/08/31 00:08:46;;;;;;;490.80;444.50;;;;;;;25.01;59.61;99405.09;339473;29;1301;-79
2022/08/31 00:08:57;;;;;;;493.75;447.30;;;;;;;25.02;59.37;99408.59;339536;28;1253;-79
2022/08/31 00:09:07;;;;;;;502.58;455.80;;;;;;;25.02;59.26;99413.97;336301;29;1381;-80
2022/08/31 00:09:18;;;;;;;502.13;455.37;;;;;;;25.00;59.64;99403.41;335336;29;1421;-80
2022/08/31 00:09:29;;;;;;;510.37;463.57;;;;;;;25.02;59.32;99411.28;337183;29;1584;-80
2022/08/31 00:09:40;;;;;;;506.92;460.30;;;;;;;25.00;59.47;99403.41;336294;29;1905;-80
2022/08/31 00:09:50;;;;;;;504.23;457.57;;;;;;;25.02;59.57;99411.28;333135;29;1255;-80
2022/08/31 00:10:12;;;;;;;500.85;454.35;;;;;;;24.99;59.28;99406.25;338273;29;1379;-79
2022/08/31 00:10:26;;;;;;;508.52;461.65;;;;;;;25.00;59.34;99406.09;335349;29;1029;-79
2022/08/31 00:10:40;;;;;;;502.92;456.42;;;;;;;25.02;59.59;99406.75;336127;29;1635;-79
2022/08/31 00:10:53;;;;;;;505.52;459.25;;;;;;;25.04;59.39;99409.28;334326;29;1296;-79
2022/08/31 00:11:08;;;;;;;506.13;459.48;;;;;;;25.02;59.43;99401.41;332973;29;1437;-79
2022/08/31 00:11:26;;;;;;;498.40;451.98;;;;;;;25.01;59.63;99410.44;330708;29;1328;-80
2022/08/31 00:11:37;;;;;;;491.02;445.13;;;;;;;25.00;59.58;99407.91;327256;29;2096;-80
2022/08/31 00:11:47;;;;;;;494.13;448.00;;;;;;;25.01;59.37;99405.09;327013;30;1293;-80
2022/08/31 00:11:58;;;;;;;495.83;449.63;;;;;;;25.00;59.39;99402.56;326049;30;1670;-80
2022/08/31 00:12:09;;;;;;;494.90;448.48;;;;;;;25.02;59.49;99406.75;324565;30;1361;-80
2022/08/31 00:12:19;;;;;;;489.67;443.27;;;;;;;25.02;59.63;99403.25;327348;30;1345;-80
2022/08/31 00:12:30;;;;;;;481.88;435.45;;;;;;;25.03;59.54;99404.94;328101;30;1516;-80
2022/08/31 00:12:41;;;;;;;482.87;436.47;;;;;;;25.00;59.78;99410.59;324039;30;1774;-80
2022/08/31 00:12:51;;;;;;;479.75;433.60;;;;;;;25.02;59.84;99408.59;323345;29;2101;-80
2022/08/31 00:13:02;;;;;;;482.20;436.20;;;;;;;25.00;59.84;99402.56;326088;30;1267;-80
2022/08/31 00:13:12;;;;;;;478.45;432.58;;;;;;;24.99;60.01;99404.41;326920;29;2052;-80
2022/08/31 00:13:23;;;;;;;485.17;439.17;;;;;;;25.01;59.49;99410.44;327397;29;2304;-80
2022/08/31 00:13:34;;;;;;;488.90;442.75;;;;;;;25.00;59.84;99402.56;325701;30;1303;-80
2022/08/31 00:13:45;;;;;;;499.80;453.23;;;;;;;25.00;59.71;99407.91;325292;30;2519;-80
2022/08/31 00:14:00;;;;;;;496.27;449.75;;;;;;;24.99;59.72;99400.88;326695;30;2559;-80
2022/08/31 00:14:11;;;;;;;491.95;445.85;;;;;;;24.99;59.60;99400.88;326066;30;2250;-80
2022/08/31 00:14:21;;;;;;;493.77;447.67;;;;;;;25.02;59.76;99403.25;326766;30;1033;-80
2022/08/31 00:14:31;;;;;;;489.85;443.73;;;;;;;25.01;59.55;99405.09;326974;30;888;-80
2022/08/31 00:14:42;;;;;;;494.60;448.13;;;;;;;25.03;59.58;99410.28;325986;30;2015;-80
2022/08/31 00:14:52;;;;;;;490.50;444.23;;;;;;;25.03;59.65;99403.09;323957;30;2747;-80
2022/08/31 00:15:03;;;;;;;494.47;448.13;;;;;;;25.05;59.52;99405.59;322626;30;1349;-80
2022/08/31 00:15:18;;;;;;;492.63;446.33;;;;;;;25.04;59.71;99410.13;318704;30;3190;-80
2022/08/31 00:15:29;;;;;;;484.52;438.52;;;;;;;25.05;59.58;99405.59;318283;30;2958;-80
2022/08/31 00:15:39;;;;;;;480.02;434.13;;;;;;;25.05;59.69;99400.25;315709;31;3187;-80
2022/08/31 00:15:50;;;;;;;487.57;441.47;;;;;;;25.05;59.67;99405.59;314314;31;823;-80
2022/08/31 00:16:00;;;;;;;484.08;438.13;;;;;;;25.04;59.70;99406.59;316663;31;2905;-80
2022/08/31 00:16:11;;;;;;;484.53;438.37;;;;;;;25.03;59.83;99405.75;311919;31;3246;-80
2022/08/31 00:16:21;;;;;;;483.95;437.73;;;;;;;25.02;60.24;99406.75;302731;31;4559;-80
2022/08/31 00:16:38;;;;;;;490.87;444.43;;;;;;;25.04;59.64;99398.56;310412;31;2954;-80
2022/08/31 00:16:48;;;;;;;495.35;449.15;;;;;;;25.04;59.58;99403.94;309571;31;1980;-81
2022/08/31 00:16:59;;;;;;;499.20;452.60;;;;;;;25.02;59.76;99401.41;305611;32;3236;-81
2022/08/31 00:17:09;;;;;;;502.38;455.60;;;;;;;25.01;59.76;99405.09;302204;32;4115;-81
2022/08/31 00:17:20;;;;;;;498.90;452.23;;;;;;;25.01;59.85;99409.59;301197;32;1218;-81
2022/08/31 00:17:30;;;;;;;496.60;450.30;;;;;;;25.02;59.70;99400.56;299287;32;5021;-81
2022/08/31 00:17:40;;;;;;;489.77;443.67;;;;;;;25.03;60.01;99408.44;300428;32;4501;-81
2022/08/31 00:17:51;;;;;;;488.75;442.60;;;;;;;25.03;59.77;99399.56;298195;33;5127;-81
2022/08/31 00:18:02;;;;;;;487.03;440.87;;;;;;;25.04;59.67;99401.25;293240;33;1279;-81
2022/08/31 00:18:13;;;;;;;489.02;442.77;;;;;;;25.04;59.90;99403.94;293292;33;4221;-81
2022/08/31 00:18:23;;;;;;;494.27;447.90;;;;;;;25.02;59.87;99396.06;292712;33;4166;-81
2022/08/31 00:18:34;;;;;;;494.27;447.98;;;;;;;25.02;59.78;99405.94;293214;33;1245;-81
2022/08/31 00:18:45;;;;;;;488.50;442.50;;;;;;;24.99;59.63;99407.09;288680;33;3799;-81
2022/08/31 00:18:56;;;;;;;485.55;439.67;;;;;;;25.02;59.90;99403.25;287984;33;2916;-81
2022/08/31 00:19:06;;;;;;;489.57;443.60;;;;;;;25.01;60.05;99405.09;286568;34;4442;-81
2022/08/31 00:19:17;;;;;;;496.23;449.90;;;;;;;24.99;59.88;99403.56;285722;34;1353;-81
2022/08/31 00:19:28;;;;;;;503.17;456.70;;;;;;;25.00;59.79;99407.91;285474;34;6775;-81
2022/08/31 00:19:38;;;;;;;506.80;460.23;;;;;;;25.00;59.73;99399.88;283637;34;7027;-81
2022/08/31 00:19:50;;;;;;;499.63;453.30;;;;;;;25.00;59.98;99402.56;280799;35;1354;-81
2022/08/31 00:20:00;;;;;;;492.65;446.27;;;;;;;24.99;59.86;99407.09;280378;34;6795;-79
2022/08/31 00:20:11;;;;;;;491.73;445.23;;;;;;;24.98;60.20;99404.56;278350;35;6556;-81
2022/08/31 00:20:22;;;;;;;490.27;443.70;;;;;;;24.97;60.12;99398.38;276934;35;5288;-80
2022/08/31 00:20:33;;;;;;;490.00;443.70;;;;;;;24.95;60.25;99405.69;277236;35;1350;-80
2022/08/31 00:20:44;;;;;;;493.15;446.88;;;;;;;24.95;60.62;99400.34;276138;35;5373;-80
2022/08/31 00:20:54;;;;;;;500.37;453.83;;;;;;;24.95;60.44;99407.53;275568;35;4709;-79
2022/08/31 00:21:05;;;;;;;500.50;453.75;;;;;;;24.96;60.44;99401.19;274528;36;1424;-79
2022/08/31 00:21:15;;;;;;;501.17;454.30;;;;;;;24.95;60.22;99400.34;271461;35;4690;-79
2022/08/31 00:21:26;;;;;;;505.50;458.42;;;;;;;24.96;60.49;99411.91;271150;35;7053;-79
2022/08/31 00:21:38;;;;;;;507.17;459.97;;;;;;;24.93;60.44;99398.81;269868;36;10667;-81
2022/08/31 00:21:48;;;;;;;498.35;451.30;;;;;;;24.94;60.06;99403.16;269863;36;1406;-81
2022/08/31 00:23:28;;;;;;;446.26;399.61;;;;;;;24.90;60.89;99401.81;2500168;27;20493;-79
2022/08/31 00:23:38;;;;;;;477.77;431.80;;;;;;;24.88;60.55;99400.13;352365;28;1273;-79
2022/08/31 00:23:49;;;;;;;482.20;436.08;;;;;;;24.88;60.81;99399.28;349063;28;1275;-80
2022/08/31 00:23:59;;;;;;;479.30;433.40;;;;;;;24.89;60.61;99406.31;346581;28;757;-79
2022/08/31 00:24:10;;;;;;;480.70;434.60;;;;;;;24.88;60.46;99402.81;348809;28;1287;-79
2022/08/31 00:24:20;;;;;;;476.33;430.23;;;;;;;24.90;60.62;99401.81;347565;28;1405;-80
2022/08/31 00:24:31;;;;;;;479.55;433.27;;;;;;;24.90;60.84;99399.97;346150;28;1236;-80
2022/08/31 00:24:41;;;;;;;471.20;425.13;;;;;;;24.90;60.60;99401.81;347392;28;1229;-80
2022/08/31 00:24:51;;;;;;;466.63;420.48;;;;;;;24.91;60.70;99398.13;347333;28;1225;-80
2022/08/31 00:25:02;;;;;;;461.20;415.23;;;;;;;24.89;60.72;99400.97;349019;28;994;-80
2022/08/31 00:25:13;;;;;;;462.63;416.70;;;;;;;24.87;60.97;99403.81;348094;28;1567;-80
2022/08/31 00:25:23;;;;;;;465.87;419.97;;;;;;;24.85;60.85;99400.44;346319;28;1293;-80
2022/08/31 00:25:34;;;;;;;468.83;423.00;;;;;;;24.83;61.04;99397.09;347013;28;3768;-79
2022/08/31 00:25:46;;;;;;;475.35;429.35;;;;;;;24.83;60.97;99402.44;349861;28;2979;-81
2022/08/31 00:25:56;;;;;;;477.55;431.23;;;;;;;24.83;60.65;99407.78;346221;28;1813;-80
2022/08/31 00:26:07;;;;;;;477.67;431.33;;;;;;;24.80;61.06;99396.56;347533;28;3334;-80
2022/08/31 00:26:17;;;;;;;472.70;426.35;;;;;;;24.81;61.18;99392.88;348191;28;1488;-80
2022/08/31 00:26:28;;;;;;;475.17;428.77;;;;;;;24.80;61.18;99408.09;346237;28;1475;-80
2022/08/31 00:26:39;;;;;;;473.42;427.05;;;;;;;24.78;60.93;99398.56;346319;28;1236;-80
2022/08/31 00:26:49;;;;;;;475.65;429.23;;;;;;;24.80;61.25;99401.91;348038;28;1318;-80
2022/08/31 00:27:00;;;;;;;469.37;423.37;;;;;;;24.80;61.19;99401.91;347842;28;867;-80
2022/08/31 00:27:10;;;;;;;466.98;421.13;;;;;;;24.79;60.99;99401.06;350221;28;951;-80
2022/08/31 00:27:21;;;;;;;468.15;422.20;;;;;;;24.78;60.92;99399.41;347279;28;1484;-79
2022/08/31 00:27:31;;;;;;;469.83;423.80;;;;;;;24.79;60.95;99398.41;346350;28;1309;-79
2022/08/31 00:27:42;;;;;;;470.10;423.93;;;;;;;24.78;61.16;99403.91;346322;28;876;-80
2022/08/31 00:27:54;;;;;;;476.50;430.42;;;;;;;24.75;61.24;99399.72;348848;28;1456;-80
2022/08/31 00:28:05;;;;;;;481.58;435.58;;;;;;;24.76;61.11;99401.38;347608;28;1292;-80
2022/08/31 00:28:15;;;;;;;486.83;440.48;;;;;;;24.77;61.31;99408.41;343702;28;1231;-80
2022/08/31 00:28:26;;;;;;;484.48;438.02;;;;;;;24.75;61.18;99402.38;344998;28;1267;-80
2022/08/31 00:28:36;;;;;;;487.53;440.97;;;;;;;24.75;61.37;99401.53;346742;28;1225;-80
2022/08/31 00:28:47;;;;;;;486.77;440.30;;;;;;;24.74;61.05;99398.03;345078;28;1205;-80
2022/08/31 00:28:57;;;;;;;488.23;441.65;;;;;;;24.74;60.89;99403.38;343042;28;1247;-80
2022/08/31 00:29:08;;;;;;;484.87;438.30;;;;;;;24.74;61.05;99398.03;345495;28;1232;-80
2022/08/31 00:29:18;;;;;;;478.77;432.27;;;;;;;24.74;61.34;99402.53;343388;28;1304;-80
2022/08/31 00:29:28;;;;;;;474.50;428.23;;;;;;;24.75;61.14;99409.56;340978;29;916;-80
2022/08/31 00:29:40;;;;;;;469.60;423.67;;;;;;;24.73;61.38;99400.88;340977;28;1237;-81
2022/08/31 00:29:51;;;;;;;469.92;423.98;;;;;;;24.74;61.55;99407.91;339420;28;1611;-81
2022/08/31 00:30:02;;;;;;;476.10;429.93;;;;;;;24.72;61.30;99400.03;336369;29;1279;-81
2022/08/31 00:30:13;;;;;;;477.90;431.63;;;;;;;24.69;61.43;99403.03;336965;29;1525;-80
2022/08/31 00:30:23;;;;;;;474.73;428.40;;;;;;;24.70;61.60;99404.69;343343;28;1220;-80
2022/08/31 00:30:34;;;;;;;484.88;438.45;;;;;;;24.72;61.32;99404.53;344589;28;1343;-80
2022/08/31 00:30:45;;;;;;;488.47;441.97;;;;;;;24.72;61.31;99412.56;343139;28;840;-80
2022/08/31 00:30:55;;;;;;;495.63;449.20;;;;;;;24.71;61.42;99401.03;341007;29;1285;-80
2022/08/31 00:31:06;;;;;;;488.92;442.63;;;;;;;24.71;61.51;99409.06;343394;28;925;-80
2022/08/31 00:31:16;;;;;;;496.13;449.57;;;;;;;24.71;61.33;99409.06;342794;28;1334;-80
2022/08/31 00:31:27;;;;;;;499.85;453.13;;;;;;;24.71;61.51;99408.22;341068;29;1225;-80
2022/08/31 00:31:37;;;;;;;500.73;454.20;;;;;;;24.71;61.57;99402.84;339618;29;1562;-80
2022/08/31 00:31:47;;;;;;;494.73;448.35;;;;;;;24.70;61.68;99404.69;340659;28;1350;-80
2022/08/31 00:31:58;;;;;;;484.70;438.60;;;;;;;24.68;61.81;99408.56;340947;29;1218;-80
2022/08/31 00:32:08;;;;;;;488.48;442.33;;;;;;;24.67;61.56;99413.06;338075;29;1600;-80
2022/08/31 00:32:19;;;;;;;491.23;444.77;;;;;;;24.67;61.86;99402.38;337651;29;1408;-80
2022/08/31 00:32:30;;;;;;;491.73;445.13;;;;;;;24.66;61.75;99402.53;336558;29;1297;-80
2022/08/31 00:32:40;;;;;;;486.98;440.67;;;;;;;24.65;61.57;99404.34;335484;29;1445;-80
2022/08/31 00:32:51;;;;;;;492.73;446.40;;;;;;;24.64;61.83;99405.34;339542;29;1174;-80
2022/08/31 00:33:02;;;;;;;497.67;451.20;;;;;;;24.63;62.14;99410.88;336850;29;1061;-80
2022/08/31 00:33:12;;;;;;;499.67;453.03;;;;;;;24.62;62.11;99418.06;334335;29;1554;-80
2022/08/31 00:33:22;;;;;;;497.45;450.90;;;;;;;24.60;62.54;99409.34;335039;29;1455;-80
2022/08/31 00:33:35;;;;;;;501.23;454.70;;;;;;;24.61;62.57;99408.34;330961;29;1722;-80
2022/08/31 00:33:51;;;;;;;500.60;453.95;;;;;;;24.59;61.91;99407.66;331344;29;1485;-80
2022/08/31 00:34:01;;;;;;;504.70;457.77;;;;;;;24.59;62.47;99413.00;329685;29;1440;-80
2022/08/31 00:34:11;;;;;;;503.70;456.73;;;;;;;24.61;62.51;99412.84;326892;30;1242;-80
2022/08/31 00:34:22;;;;;;;503.43;456.73;;;;;;;24.60;62.15;99411.19;328591;30;1910;-80
2022/08/31 00:34:32;;;;;;;495.60;449.00;;;;;;;24.59;62.72;99410.34;328219;30;1723;-80
2022/08/31 00:34:43;;;;;;;495.13;448.50;;;;;;;24.59;62.70;99410.34;327355;29;3713;-80
2022/08/31 00:34:53;;;;;;;498.23;451.60;;;;;;;24.57;63.00;99406.97;329097;29;3569;-80
2022/08/31 00:35:05;;;;;;;501.97;455.33;;;;;;;24.58;62.64;99414.00;329919;29;1320;-80
2022/08/31 00:35:15;;;;;;;501.77;455.27;;;;;;;24.56;62.67;99402.63;326145;30;1907;-80
2022/08/31 00:35:27;;;;;;;501.70;455.13;;;;;;;24.56;63.19;99410.66;329365;29;1867;-80
2022/08/31 00:35:40;;;;;;;495.58;448.95;;;;;;;24.54;63.03;99408.13;326805;30;2286;-80
2022/08/31 00:35:50;;;;;;;502.38;455.38;;;;;;;24.51;62.99;99411.13;320987;30;2116;-80
2022/08/31 00:36:05;;;;;;;508.17;460.90;;;;;;;24.52;62.99;99406.59;324781;30;1360;-80
2022/08/31 00:36:16;;;;;;;517.78;470.40;;;;;;;24.55;63.61;99403.63;318739;31;921;-81
2022/08/31 00:36:26;;;;;;;524.17;477.10;;;;;;;24.55;63.03;99408.97;319183;30;1289;-81
2022/08/31 00:36:37;;;;;;;525.50;478.40;;;;;;;24.55;63.20;99411.66;321445;30;2556;-81
2022/08/31 00:36:47;;;;;;;514.20;467.33;;;;;;;24.54;62.97;99402.78;320422;30;1889;-81
2022/08/31 00:36:59;;;;;;;517.50;470.63;;;;;;;24.54;62.93;99405.44;322197;30;836;-81
2022/08/31 00:37:10;;;;;;;518.85;471.88;;;;;;;24.56;63.32;99413.31;321753;30;1424;-81
2022/08/31 00:37:20;;;;;;;525.70;478.67;;;;;;;24.57;62.89;99412.31;321802;30;2074;-81
2022/08/31 00:37:31;;;;;;;520.07;473.23;;;;;;;24.57;63.16;99401.63;317543;31;1370;-81
2022/08/31 00:37:41;;;;;;;522.57;475.57;;;;;;;24.54;62.91;99404.59;315631;30;2633;-81
2022/08/31 00:37:51;;;;;;;521.33;474.07;;;;;;;24.54;63.14;99412.63;318799;30;2719;-81
2022/08/31 00:38:03;;;;;;;522.22;474.67;;;;;;;24.53;63.02;99410.97;318204;30;2894;-81
2022/08/31 00:38:13;;;;;;;525.85;478.10;;;;;;;24.53;63.12;99408.28;315188;31;1316;-81
2022/08/31 00:38:24;;;;;;;528.35;480.58;;;;;;;24.51;63.22;99412.94;318616;30;2838;-81
2022/08/31 00:38:34;;;;;;;528.07;480.20;;;;;;;24.48;62.98;99411.44;316246;30;2563;-81
2022/08/31 00:38:47;;;;;;;522.28;474.73;;;;;;;24.48;63.43;99405.22;313007;31;1287;-81
2022/08/31 00:38:57;;;;;;;521.42;474.08;;;;;;;24.45;63.50;99406.38;314106;31;1343;-81
2022/08/31 00:39:07;;;;;;;520.25;473.00;;;;;;;24.45;63.15;99408.22;317646;31;2343;-81
2022/08/31 00:39:18;;;;;;;527.57;479.97;;;;;;;24.47;63.27;99406.22;316444;31;2403;-81
2022/08/31 00:39:29;;;;;;;519.63;472.13;;;;;;;24.46;63.36;99404.56;316384;31;1348;-81
2022/08/31 00:39:39;;;;;;;518.80;471.20;;;;;;;24.44;63.39;99410.06;312280;31;3218;-81
2022/08/31 00:39:51;;;;;;;513.77;466.70;;;;;;;24.46;63.18;99412.56;309644;31;3855;-81
2022/08/31 00:40:02;;;;;;;522.40;475.05;;;;;;;24.46;63.25;99408.06;308715;31;5051;-81
2022/08/31 00:40:12;;;;;;;523.80;476.40;;;;;;;24.46;63.31;99407.22;306023;32;1788;-81
2022/08/31 00:40:23;;;;;;;519.03;471.55;;;;;;;24.47;63.13;99411.59;307050;32;4283;-81
2022/08/31 00:40:34;;;;;;;521.53;474.05;;;;;;;24.45;63.20;99409.06;304212;32;4293;-81
2022/08/31 00:40:45;;;;;;;520.53;473.23;;;;;;;24.44;63.46;99407.38;301062;32;1368;-81
2022/08/31 00:40:55;;;;;;;525.53;478.25;;;;;;;24.44;63.38;99404.69;302175;32;3770;-81
2022/08/31 00:41:07;;;;;;;516.13;469.23;;;;;;;24.42;63.37;99405.84;301466;32;3729;-81
2022/08/31 00:41:20;;;;;;;514.97;468.10;;;;;;;24.42;63.50;99405.84;298751;32;3202;-81
2022/08/31 00:41:33;;;;;;;505.74;458.98;;;;;;;24.42;63.58;99403.19;299228;33;1680;-81
2022/08/31 00:41:43;;;;;;;514.10;467.17;;;;;;;24.40;63.34;99411.38;297345;33;1287;-81
2022/08/31 00:41:54;;;;;;;521.57;474.37;;;;;;;24.40;63.57;99405.16;296073;32;4727;-81
2022/08/31 00:42:05;;;;;;;527.17;479.83;;;;;;;24.40;63.54;99411.38;295962;33;5890;-81
2022/08/31 00:42:16;;;;;;;518.17;470.83;;;;;;;24.39;63.44;99403.50;294120;33;1102;-81
2022/08/31 00:42:26;;;;;;;520.92;473.50;;;;;;;24.39;63.71;99409.69;293436;33;6671;-81
2022/08/31 00:42:37;;;;;;;525.07;477.57;;;;;;;24.39;63.89;99403.50;289706;33;6948;-81
2022/08/31 00:42:47;;;;;;;523.47;476.17;;;;;;;24.39;63.83;99400.81;284441;34;6351;-81
2022/08/31 00:42:58;;;;;;;515.33;468.17;;;;;;;24.37;64.00;99406.31;285110;34;1219;-81
2022/08/31 00:43:09;;;;;;;517.97;470.63;;;;;;;24.37;64.22;99410.84;286885;34;5224;-81
2022/08/31 00:43:37;;;;;;;518.33;471.02;;;;;;;24.34;64.01;99405.78;286533;34;5978;-81
2022/08/31 00:44:01;;;;;;;520.88;474.13;;;;;;;24.34;63.99;99405.78;282469;34;4753;-81
2022/08/31 00:44:12;;;;;;;528.35;481.40;;;;;;;24.35;63.86;99402.13;278468;35;1291;-81
2022/08/31 00:44:22;;;;;;;530.50;483.37;;;;;;;24.34;64.04;99403.94;274292;35;9852;-81
2022/08/31 00:44:33;;;;;;;530.83;483.67;;;;;;;24.32;63.96;99408.63;271479;36;9395;-81
2022/08/31 00:44:43;;;;;;;533.10;485.92;;;;;;;24.34;63.87;99400.44;270226;36;1051;-81
2022/08/31 00:44:54;;;;;;;533.35;485.80;;;;;;;24.33;63.95;99402.28;266543;36;10044;-81
2022/08/31 00:46:46;;;;;;;478.56;431.44;;;;;;;24.40;63.87;99405.16;2491626;27;20273;-80
2022/08/31 00:46:57;;;;;;;506.67;460.47;;;;;;;24.39;64.17;99409.69;353486;28;1041;-80
2022/08/31 00:47:09;;;;;;;505.10;458.88;;;;;;;24.35;64.42;99397.59;350434;28;1543;-80
2022/08/31 00:47:19;;;;;;;508.52;461.98;;;;;;;24.33;64.18;99399.59;348830;28;1302;-80
2022/08/31 00:47:30;;;;;;;505.85;459.08;;;;;;;24.33;64.36;99404.09;348001;28;1205;-80
2022/08/31 00:47:41;;;;;;;508.75;461.83;;;;;;;24.30;64.17;99399.06;347702;28;887;-81
2022/08/31 00:47:51;;;;;;;504.77;458.15;;;;;;;24.28;64.21;99401.91;349127;28;1198;-81
2022/08/31 00:48:02;;;;;;;508.93;462.37;;;;;;;24.30;64.72;99405.25;347716;28;1448;-81
2022/08/31 00:48:12;;;;;;;513.45;466.80;;;;;;;24.29;64.58;99403.56;347396;28;1340;-80
2022/08/31 00:48:22;;;;;;;515.10;468.20;;;;;;;24.30;64.45;99409.75;350250;28;1264;-80
2022/08/31 00:48:35;;;;;;;520.80;473.70;;;;;;;24.28;64.46;99403.72;346285;28;1171;-81
2022/08/31 00:49:15;;;;;;;523.08;476.05;;;;;;;24.21;64.84;99407.03;343538;28;1106;-81
2022/08/31 00:49:27;;;;;;;520.00;473.45;;;;;;;24.18;65.08;99407.34;345364;28;1142;-80
2022/08/31 00:49:38;;;;;;;527.03;480.23;;;;;;;24.18;64.93;99403.81;343491;28;1412;-80
2022/08/31 00:49:50;;;;;;;523.47;476.65;;;;;;;24.18;64.92;99407.34;343392;28;1977;-80
2022/08/31 00:50:02;;;;;;;528.25;481.15;;;;;;;24.19;65.31;99405.50;343415;28;1293;-80
2022/08/31 00:50:14;;;;;;;529.92;482.65;;;;;;;24.19;64.76;99409.00;344199;28;1561;-80
2022/08/31 00:50:24;;;;;;;531.22;483.88;;;;;;;24.18;64.75;99406.50;342946;28;1376;-81
2022/08/31 00:50:35;;;;;;;531.15;483.83;;;;;;;24.17;64.99;99405.66;344948;28;1325;-81
2022/08/31 00:50:45;;;;;;;528.67;481.63;;;;;;;24.17;65.09;99411.00;349098;28;1286;-82
2022/08/31 00:50:56;;;;;;;537.05;489.88;;;;;;;24.16;64.94;99409.31;347977;28;1249;-79
2022/08/31 00:51:06;;;;;;;532.13;485.00;;;;;;;24.14;64.84;99400.59;344854;28;1100;-80
2022/08/31 00:51:17;;;;;;;533.77;486.33;;;;;;;24.14;65.00;99405.97;342775;28;1312;-80
2022/08/31 00:51:28;;;;;;;522.20;475.05;;;;;;;24.14;65.30;99400.59;345262;28;820;-80
2022/08/31 00:51:43;;;;;;;525.65;478.38;;;;;;;24.12;65.21;99402.59;347454;28;1464;-80
2022/08/31 00:51:57;;;;;;;528.67;481.65;;;;;;;24.11;65.02;99400.91;343493;28;1307;-80
2022/08/31 00:52:15;;;;;;;533.35;486.17;;;;;;;24.10;65.23;99399.22;347463;28;1298;-80
2022/08/31 00:52:30;;;;;;;534.20;487.13;;;;;;;24.11;65.46;99403.59;345958;28;1272;-80
2022/08/31 00:52:43;;;;;;;536.05;488.90;;;;;;;24.12;65.11;99405.25;345415;28;1556;-80
2022/08/31 00:52:58;;;;;;;534.42;487.50;;;;;;;24.13;65.23;99408.78;344560;28;1205;-80
2022/08/31 00:53:08;;;;;;;541.38;494.15;;;;;;;24.13;64.98;99404.28;342552;28;4256;-80
2022/08/31 00:53:19;;;;;;;540.30;492.97;;;;;;;24.13;65.22;99398.09;342233;28;3419;-80
2022/08/31 00:53:29;;;;;;;546.90;498.90;;;;;;;24.14;64.97;99399.78;344507;28;1765;-80
2022/08/31 00:53:40;;;;;;;543.25;495.73;;;;;;;24.13;65.12;99404.28;342259;28;3035;-80
2022/08/31 00:53:50;;;;;;;545.57;497.97;;;;;;;24.13;64.98;99398.09;344350;28;1299;-80
2022/08/31 00:54:01;;;;;;;540.30;493.25;;;;;;;24.12;65.05;99402.59;344930;28;1322;-80
2022/08/31 00:54:12;;;;;;;539.63;491.85;;;;;;;24.14;64.73;99403.28;341987;28;1312;-80
2022/08/31 00:54:43;;;;;;;544.63;496.67;;;;;;;24.16;65.10;99403.13;341350;28;1193;-80
2022/08/31 00:55:03;;;;;;;541.25;494.02;;;;;;;24.13;65.01;99406.94;337500;29;1278;-80
2022/08/31 00:55:20;;;;;;;537.33;489.95;;;;;;;24.13;65.10;99404.28;334423;29;1545;-80
2022/08/31 00:55:32;;;;;;;541.60;494.27;;;;;;;24.15;64.95;99402.28;336583;29;1321;-80
2022/08/31 00:55:43;;;;;;;545.13;497.55;;;;;;;24.16;64.89;99409.31;336709;29;1983;-80
2022/08/31 00:55:53;;;;;;;550.92;503.30;;;;;;;24.15;64.93;99404.97;335520;29;1195;-81
2022/08/31 00:56:03;;;;;;;548.70;501.00;;;;;;;24.15;65.00;99404.13;335857;29;724;-81
2022/08/31 00:56:14;;;;;;;546.20;498.73;;;;;;;24.13;65.20;99401.59;332650;29;1168;-81
2022/08/31 00:56:24;;;;;;;541.38;494.00;;;;;;;24.13;64.98;99398.94;328366;30;1066;-81
2022/08/31 00:56:35;;;;;;;544.67;497.07;;;;;;;24.13;65.20;99398.94;328037;30;1206;-81
2022/08/31 00:56:45;;;;;;;546.70;498.95;;;;;;;24.14;65.00;99408.63;324205;30;1362;-81
2022/08/31 00:56:56;;;;;;;550.70;502.95;;;;;;;24.13;65.22;99398.94;324379;30;1803;-81
2022/08/31 00:57:07;;;;;;;541.57;494.17;;;;;;;24.12;64.82;99402.59;324062;30;1901;-81
2022/08/31 00:57:17;;;;;;;546.45;498.98;;;;;;;24.11;65.23;99397.41;319799;30;1336;-81
2022/08/31 00:57:31;;;;;;;540.00;492.30;;;;;;;24.11;65.31;99400.91;319605;30;1705;-81
2022/08/31 00:57:43;;;;;;;534.35;486.77;;;;;;;24.10;65.02;99404.59;321916;30;2203;-81
2022/08/31 00:57:54;;;;;;;529.25;481.73;;;;;;;24.11;65.19;99395.56;322552;30;1673;-81
2022/08/31 00:58:08;;;;;;;539.63;492.00;;;;;;;24.15;64.91;99402.28;324253;30;1412;-81
2022/08/31 00:58:18;;;;;;;540.42;493.17;;;;;;;24.15;64.92;99398.78;319923;30;1306;-80
2022/08/31 00:58:29;;;;;;;541.67;494.57;;;;;;;24.13;65.06;99401.59;321678;30;1265;-80
2022/08/31 00:58:39;;;;;;;542.88;495.73;;;;;;;24.13;65.21;99396.25;316779;30;1541;-80
2022/08/31 00:58:49;;;;;;;542.73;495.53;;;;;;;24.14;64.81;99405.97;315194;31;838;-80
2022/08/31 00:59:00;;;;;;;545.28;498.00;;;;;;;24.12;64.57;99394.56;321393;30;2154;-80
2022/08/31 00:59:14;;;;;;;544.67;497.23;;;;;;;24.13;64.58;99395.41;322720;30;2419;-80
2022/08/31 00:59:25;;;;;;;544.22;496.85;;;;;;;24.14;64.48;99403.28;322667;30;2408;-80